sensor_id;sensor_type;location;lat;lon;timestamp;P1;durP1;ratioP1;P2;durP2;ratioP2
30553;SDS011;17335;50.720;7.452;2024-02-16T00:01:00;5.15;;;1.17;;
30553;SDS011;17335;50.720;7.452;2024-02-16T00:03:28;3.72;;;1.45;;
30553;SDS011;17335;50.720;7.452;2024-02-16T00:05:55;4.05;;;1.50;;
30553;SDS011;17335;50.720;7.452;2024-02-16T00:08:21;4.07;;;1.40;;
30553;SDS011;17335;50.720;7.452;2024-02-16T00:10:48;2.58;;;1.33;;
30553;SDS011;17335;50.720;7.452;2024-02-16T00:13:14;3.50;;;1.40;;
30553;SDS011;17335;50.720;7.452;2024-02-16T00:15:41;2.47;;;1.30;;
30553;SDS011;17335;50.720;7.452;2024-02-16T00:18:07;3.97;;;1.40;;
30553;SDS011;17335;50.720;7.452;2024-02-16T00:20:34;2.58;;;1.27;;
30553;SDS011;17335;50.720;7.452;2024-02-16T00:23:00;3.08;;;1.30;;
30553;SDS011;17335;50.720;7.452;2024-02-16T00:25:27;2.72;;;1.50;;
30553;SDS011;17335;50.720;7.452;2024-02-16T00:27:53;3.90;;;1.35;;
30553;SDS011;17335;50.720;7.452;2024-02-16T00:30:20;4.10;;;1.45;;
30553;SDS011;17335;50.720;7.452;2024-02-16T00:32:47;4.05;;;1.50;;
30553;SDS011;17335;50.720;7.452;2024-02-16T00:35:15;4.82;;;1.30;;
30553;SDS011;17335;50.720;7.452;2024-02-16T00:37:45;3.00;;;1.33;;
30553;SDS011;17335;50.720;7.452;2024-02-16T00:40:12;5.30;;;1.50;;
30553;SDS011;17335;50.720;7.452;2024-02-16T00:42:38;2.63;;;1.27;;
30553;SDS011;17335;50.720;7.452;2024-02-16T00:45:05;4.95;;;1.58;;
30553;SDS011;17335;50.720;7.452;2024-02-16T00:47:32;4.95;;;1.50;;
30553;SDS011;17335;50.720;7.452;2024-02-16T00:49:59;4.68;;;1.63;;
30553;SDS011;17335;50.720;7.452;2024-02-16T00:52:25;2.92;;;1.25;;
30553;SDS011;17335;50.720;7.452;2024-02-16T00:54:52;5.95;;;1.58;;
30553;SDS011;17335;50.720;7.452;2024-02-16T00:57:19;3.10;;;1.58;;
30553;SDS011;17335;50.720;7.452;2024-02-16T00:59:45;5.95;;;1.40;;
30553;SDS011;17335;50.720;7.452;2024-02-16T01:02:12;6.50;;;1.55;;
30553;SDS011;17335;50.720;7.452;2024-02-16T01:04:38;3.50;;;1.60;;
30553;SDS011;17335;50.720;7.452;2024-02-16T01:07:05;3.95;;;1.38;;
30553;SDS011;17335;50.720;7.452;2024-02-16T01:09:31;3.38;;;1.23;;
30553;SDS011;17335;50.720;7.452;2024-02-16T01:11:58;3.58;;;1.50;;
30553;SDS011;17335;50.720;7.452;2024-02-16T01:14:24;2.88;;;1.20;;
30553;SDS011;17335;50.720;7.452;2024-02-16T01:16:51;4.10;;;1.42;;
30553;SDS011;17335;50.720;7.452;2024-02-16T01:19:18;3.78;;;1.58;;
30553;SDS011;17335;50.720;7.452;2024-02-16T01:21:45;4.55;;;1.30;;
30553;SDS011;17335;50.720;7.452;2024-02-16T01:24:13;3.78;;;1.67;;
30553;SDS011;17335;50.720;7.452;2024-02-16T01:26:40;4.38;;;1.73;;
30553;SDS011;17335;50.720;7.452;2024-02-16T01:29:06;3.67;;;1.90;;
30553;SDS011;17335;50.720;7.452;2024-02-16T01:31:33;4.15;;;1.48;;
30553;SDS011;17335;50.720;7.452;2024-02-16T01:33:59;3.80;;;1.40;;
30553;SDS011;17335;50.720;7.452;2024-02-16T01:36:26;8.80;;;1.80;;
30553;SDS011;17335;50.720;7.452;2024-02-16T01:38:52;3.80;;;1.63;;
30553;SDS011;17335;50.720;7.452;2024-02-16T01:41:19;4.47;;;1.52;;
30553;SDS011;17335;50.720;7.452;2024-02-16T01:43:45;3.95;;;1.60;;
30553;SDS011;17335;50.720;7.452;2024-02-16T01:46:12;2.67;;;1.35;;
30553;SDS011;17335;50.720;7.452;2024-02-16T01:48:38;4.10;;;1.50;;
30553;SDS011;17335;50.720;7.452;2024-02-16T01:51:08;4.15;;;1.70;;
30553;SDS011;17335;50.720;7.452;2024-02-16T01:53:35;3.83;;;1.55;;
30553;SDS011;17335;50.720;7.452;2024-02-16T01:56:03;2.97;;;1.48;;
30553;SDS011;17335;50.720;7.452;2024-02-16T01:58:30;4.50;;;1.75;;
30553;SDS011;17335;50.720;7.452;2024-02-16T02:03:26;3.92;;;1.65;;
30553;SDS011;17335;50.720;7.452;2024-02-16T02:05:52;6.43;;;1.95;;
30553;SDS011;17335;50.720;7.452;2024-02-16T02:08:21;6.55;;;2.00;;
30553;SDS011;17335;50.720;7.452;2024-02-16T02:10:47;5.70;;;1.65;;
30553;SDS011;17335;50.720;7.452;2024-02-16T02:13:15;5.78;;;1.60;;
30553;SDS011;17335;50.720;7.452;2024-02-16T02:15:42;4.20;;;1.58;;
30553;SDS011;17335;50.720;7.452;2024-02-16T02:18:08;5.93;;;1.67;;
30553;SDS011;17335;50.720;7.452;2024-02-16T02:20:35;3.22;;;1.55;;
30553;SDS011;17335;50.720;7.452;2024-02-16T02:23:01;6.13;;;1.95;;
30553;SDS011;17335;50.720;7.452;2024-02-16T02:25:29;4.13;;;1.70;;
30553;SDS011;17335;50.720;7.452;2024-02-16T02:27:56;3.38;;;1.60;;
30553;SDS011;17335;50.720;7.452;2024-02-16T02:30:22;6.15;;;1.80;;
30553;SDS011;17335;50.720;7.452;2024-02-16T02:32:49;3.53;;;1.65;;
30553;SDS011;17335;50.720;7.452;2024-02-16T02:35:17;6.03;;;1.67;;
30553;SDS011;17335;50.720;7.452;2024-02-16T02:37:44;3.67;;;1.73;;
30553;SDS011;17335;50.720;7.452;2024-02-16T02:40:10;4.07;;;1.80;;
30553;SDS011;17335;50.720;7.452;2024-02-16T02:42:38;4.35;;;1.88;;
30553;SDS011;17335;50.720;7.452;2024-02-16T02:45:05;5.22;;;1.50;;
30553;SDS011;17335;50.720;7.452;2024-02-16T02:47:32;3.65;;;1.60;;
30553;SDS011;17335;50.720;7.452;2024-02-16T02:49:58;3.75;;;1.85;;
30553;SDS011;17335;50.720;7.452;2024-02-16T02:52:25;4.45;;;1.75;;
30553;SDS011;17335;50.720;7.452;2024-02-16T02:54:52;3.85;;;1.75;;
30553;SDS011;17335;50.720;7.452;2024-02-16T02:57:18;3.95;;;1.52;;
30553;SDS011;17335;50.720;7.452;2024-02-16T02:59:45;4.90;;;1.77;;
30553;SDS011;17335;50.720;7.452;2024-02-16T03:02:11;4.38;;;1.70;;
30553;SDS011;17335;50.720;7.452;2024-02-16T03:04:38;2.60;;;1.67;;
30553;SDS011;17335;50.720;7.452;2024-02-16T03:07:05;7.03;;;2.33;;
30553;SDS011;17335;50.720;7.452;2024-02-16T03:09:32;4.85;;;1.75;;
30553;SDS011;17335;50.720;7.452;2024-02-16T03:11:58;3.63;;;1.58;;
30553;SDS011;17335;50.720;7.452;2024-02-16T03:14:25;5.15;;;1.70;;
30553;SDS011;17335;50.720;7.452;2024-02-16T03:16:51;4.72;;;1.70;;
30553;SDS011;17335;50.720;7.452;2024-02-16T03:19:17;5.03;;;1.80;;
30553;SDS011;17335;50.720;7.452;2024-02-16T03:21:46;4.78;;;2.03;;
30553;SDS011;17335;50.720;7.452;2024-02-16T03:24:13;5.20;;;1.60;;
30553;SDS011;17335;50.720;7.452;2024-02-16T03:26:39;4.10;;;1.65;;
30553;SDS011;17335;50.720;7.452;2024-02-16T03:29:06;4.65;;;2.10;;
30553;SDS011;17335;50.720;7.452;2024-02-16T03:31:33;7.75;;;2.00;;
30553;SDS011;17335;50.720;7.452;2024-02-16T03:33:59;5.72;;;2.15;;
30553;SDS011;17335;50.720;7.452;2024-02-16T03:36:26;5.70;;;1.83;;
30553;SDS011;17335;50.720;7.452;2024-02-16T03:38:53;7.68;;;1.88;;
30553;SDS011;17335;50.720;7.452;2024-02-16T03:41:20;3.40;;;1.70;;
30553;SDS011;17335;50.720;7.452;2024-02-16T03:43:47;4.45;;;2.00;;
30553;SDS011;17335;50.720;7.452;2024-02-16T03:46:14;5.20;;;1.88;;
30553;SDS011;17335;50.720;7.452;2024-02-16T03:48:41;4.95;;;1.85;;
30553;SDS011;17335;50.720;7.452;2024-02-16T03:51:08;6.93;;;2.10;;
30553;SDS011;17335;50.720;7.452;2024-02-16T03:53:34;3.78;;;1.90;;
30553;SDS011;17335;50.720;7.452;2024-02-16T03:56:01;4.57;;;1.95;;
30553;SDS011;17335;50.720;7.452;2024-02-16T03:58:27;4.45;;;1.60;;
30553;SDS011;17335;50.720;7.452;2024-02-16T04:00:54;4.13;;;1.73;;
30553;SDS011;17335;50.720;7.452;2024-02-16T04:03:21;4.68;;;1.90;;
30553;SDS011;17335;50.720;7.452;2024-02-16T04:05:47;5.25;;;2.00;;
30553;SDS011;17335;50.720;7.452;2024-02-16T04:08:14;2.88;;;1.67;;
30553;SDS011;17335;50.720;7.452;2024-02-16T04:10:40;10.40;;;1.98;;
30553;SDS011;17335;50.720;7.452;2024-02-16T04:13:07;6.68;;;1.98;;
30553;SDS011;17335;50.720;7.452;2024-02-16T04:15:33;6.10;;;1.95;;
30553;SDS011;17335;50.720;7.452;2024-02-16T04:18:00;7.63;;;2.03;;
30553;SDS011;17335;50.720;7.452;2024-02-16T04:20:27;4.72;;;1.83;;
30553;SDS011;17335;50.720;7.452;2024-02-16T04:22:53;5.18;;;1.90;;
30553;SDS011;17335;50.720;7.452;2024-02-16T04:25:20;5.22;;;1.83;;
30553;SDS011;17335;50.720;7.452;2024-02-16T04:27:46;5.65;;;1.80;;
30553;SDS011;17335;50.720;7.452;2024-02-16T04:30:12;4.10;;;2.03;;
30553;SDS011;17335;50.720;7.452;2024-02-16T04:32:39;5.22;;;1.90;;
30553;SDS011;17335;50.720;7.452;2024-02-16T04:35:05;3.95;;;1.85;;
30553;SDS011;17335;50.720;7.452;2024-02-16T04:37:32;4.85;;;2.22;;
30553;SDS011;17335;50.720;7.452;2024-02-16T04:39:59;5.03;;;1.85;;
30553;SDS011;17335;50.720;7.452;2024-02-16T04:42:26;8.32;;;2.75;;
30553;SDS011;17335;50.720;7.452;2024-02-16T04:44:52;4.72;;;1.95;;
30553;SDS011;17335;50.720;7.452;2024-02-16T04:47:19;7.10;;;2.17;;
30553;SDS011;17335;50.720;7.452;2024-02-16T04:49:45;6.53;;;2.08;;
30553;SDS011;17335;50.720;7.452;2024-02-16T04:52:12;10.60;;;2.13;;
30553;SDS011;17335;50.720;7.452;2024-02-16T04:54:38;4.45;;;2.03;;
30553;SDS011;17335;50.720;7.452;2024-02-16T04:57:06;5.93;;;2.17;;
30553;SDS011;17335;50.720;7.452;2024-02-16T04:59:33;6.47;;;2.17;;
30553;SDS011;17335;50.720;7.452;2024-02-16T05:02:00;5.35;;;2.42;;
30553;SDS011;17335;50.720;7.452;2024-02-16T05:04:26;7.18;;;2.03;;
30553;SDS011;17335;50.720;7.452;2024-02-16T05:06:53;6.82;;;2.40;;
30553;SDS011;17335;50.720;7.452;2024-02-16T05:09:23;6.38;;;2.20;;
30553;SDS011;17335;50.720;7.452;2024-02-16T05:11:52;6.13;;;2.08;;
30553;SDS011;17335;50.720;7.452;2024-02-16T05:14:19;4.75;;;2.08;;
30553;SDS011;17335;50.720;7.452;2024-02-16T05:16:45;3.63;;;1.73;;
30553;SDS011;17335;50.720;7.452;2024-02-16T05:19:12;3.08;;;1.73;;
30553;SDS011;17335;50.720;7.452;2024-02-16T05:21:39;5.13;;;2.20;;
30553;SDS011;17335;50.720;7.452;2024-02-16T05:24:06;8.63;;;2.22;;
30553;SDS011;17335;50.720;7.452;2024-02-16T05:26:33;9.63;;;1.95;;
30553;SDS011;17335;50.720;7.452;2024-02-16T05:29:00;3.63;;;1.70;;
30553;SDS011;17335;50.720;7.452;2024-02-16T05:31:26;4.55;;;2.10;;
30553;SDS011;17335;50.720;7.452;2024-02-16T05:33:54;4.20;;;1.85;;
30553;SDS011;17335;50.720;7.452;2024-02-16T05:36:21;7.32;;;1.88;;
30553;SDS011;17335;50.720;7.452;2024-02-16T05:38:51;4.50;;;2.20;;
30553;SDS011;17335;50.720;7.452;2024-02-16T05:41:21;5.47;;;1.70;;
30553;SDS011;17335;50.720;7.452;2024-02-16T05:43:47;5.53;;;2.05;;
30553;SDS011;17335;50.720;7.452;2024-02-16T05:46:15;2.72;;;1.73;;
30553;SDS011;17335;50.720;7.452;2024-02-16T05:48:42;8.10;;;2.00;;
30553;SDS011;17335;50.720;7.452;2024-02-16T05:51:10;5.78;;;2.30;;
30553;SDS011;17335;50.720;7.452;2024-02-16T05:53:39;4.03;;;1.70;;
30553;SDS011;17335;50.720;7.452;2024-02-16T05:56:06;9.45;;;2.17;;
30553;SDS011;17335;50.720;7.452;2024-02-16T05:58:33;5.97;;;1.90;;
30553;SDS011;17335;50.720;7.452;2024-02-16T06:00:59;4.25;;;1.75;;
30553;SDS011;17335;50.720;7.452;2024-02-16T06:03:26;5.20;;;2.20;;
30553;SDS011;17335;50.720;7.452;2024-02-16T06:05:55;3.97;;;1.88;;
30553;SDS011;17335;50.720;7.452;2024-02-16T06:08:22;7.22;;;2.20;;
30553;SDS011;17335;50.720;7.452;2024-02-16T06:10:51;4.45;;;2.00;;
30553;SDS011;17335;50.720;7.452;2024-02-16T06:13:20;3.60;;;1.85;;
30553;SDS011;17335;50.720;7.452;2024-02-16T06:15:48;4.22;;;1.90;;
30553;SDS011;17335;50.720;7.452;2024-02-16T06:18:14;3.97;;;2.00;;
30553;SDS011;17335;50.720;7.452;2024-02-16T06:20:41;5.80;;;2.33;;
30553;SDS011;17335;50.720;7.452;2024-02-16T06:23:08;5.38;;;2.15;;
30553;SDS011;17335;50.720;7.452;2024-02-16T06:25:35;5.25;;;2.10;;
30553;SDS011;17335;50.720;7.452;2024-02-16T06:28:01;4.88;;;2.22;;
30553;SDS011;17335;50.720;7.452;2024-02-16T06:30:28;5.63;;;2.05;;
30553;SDS011;17335;50.720;7.452;2024-02-16T06:32:55;5.82;;;2.10;;
30553;SDS011;17335;50.720;7.452;2024-02-16T06:35:22;5.55;;;2.05;;
30553;SDS011;17335;50.720;7.452;2024-02-16T06:37:48;3.85;;;2.17;;
30553;SDS011;17335;50.720;7.452;2024-02-16T06:40:14;7.63;;;2.03;;
30553;SDS011;17335;50.720;7.452;2024-02-16T06:42:41;3.95;;;1.92;;
30553;SDS011;17335;50.720;7.452;2024-02-16T06:45:08;6.65;;;2.22;;
30553;SDS011;17335;50.720;7.452;2024-02-16T06:47:34;6.22;;;2.08;;
30553;SDS011;17335;50.720;7.452;2024-02-16T06:50:01;12.07;;;2.10;;
30553;SDS011;17335;50.720;7.452;2024-02-16T06:52:28;11.23;;;2.25;;
30553;SDS011;17335;50.720;7.452;2024-02-16T06:54:55;4.10;;;1.80;;
30553;SDS011;17335;50.720;7.452;2024-02-16T06:57:21;7.38;;;2.13;;
30553;SDS011;17335;50.720;7.452;2024-02-16T06:59:48;5.45;;;2.10;;
30553;SDS011;17335;50.720;7.452;2024-02-16T07:02:15;4.03;;;1.85;;
30553;SDS011;17335;50.720;7.452;2024-02-16T07:04:43;5.53;;;2.20;;
30553;SDS011;17335;50.720;7.452;2024-02-16T07:07:11;7.65;;;2.47;;
30553;SDS011;17335;50.720;7.452;2024-02-16T07:09:38;4.10;;;2.13;;
30553;SDS011;17335;50.720;7.452;2024-02-16T07:12:06;6.72;;;2.05;;
30553;SDS011;17335;50.720;7.452;2024-02-16T07:14:33;5.70;;;2.30;;
30553;SDS011;17335;50.720;7.452;2024-02-16T07:16:59;5.97;;;2.28;;
30553;SDS011;17335;50.720;7.452;2024-02-16T07:19:26;8.43;;;2.35;;
30553;SDS011;17335;50.720;7.452;2024-02-16T07:21:53;9.48;;;2.75;;
30553;SDS011;17335;50.720;7.452;2024-02-16T07:24:20;9.15;;;3.05;;
30553;SDS011;17335;50.720;7.452;2024-02-16T07:26:46;5.38;;;2.47;;
30553;SDS011;17335;50.720;7.452;2024-02-16T07:29:13;7.50;;;2.40;;
30553;SDS011;17335;50.720;7.452;2024-02-16T07:31:42;5.47;;;3.03;;
30553;SDS011;17335;50.720;7.452;2024-02-16T07:34:09;3.95;;;1.85;;
30553;SDS011;17335;50.720;7.452;2024-02-16T07:36:38;7.00;;;2.47;;
30553;SDS011;17335;50.720;7.452;2024-02-16T07:39:04;5.35;;;2.40;;
30553;SDS011;17335;50.720;7.452;2024-02-16T07:41:31;6.25;;;2.95;;
30553;SDS011;17335;50.720;7.452;2024-02-16T07:43:57;7.95;;;2.38;;
30553;SDS011;17335;50.720;7.452;2024-02-16T07:46:24;5.55;;;2.40;;
30553;SDS011;17335;50.720;7.452;2024-02-16T07:48:50;7.65;;;2.58;;
30553;SDS011;17335;50.720;7.452;2024-02-16T07:51:17;4.78;;;2.47;;
30553;SDS011;17335;50.720;7.452;2024-02-16T07:53:44;5.10;;;2.30;;
30553;SDS011;17335;50.720;7.452;2024-02-16T07:56:13;4.70;;;2.20;;
30553;SDS011;17335;50.720;7.452;2024-02-16T07:58:41;6.40;;;2.72;;
30553;SDS011;17335;50.720;7.452;2024-02-16T08:01:11;4.75;;;2.40;;
30553;SDS011;17335;50.720;7.452;2024-02-16T08:03:40;6.65;;;2.45;;
30553;SDS011;17335;50.720;7.452;2024-02-16T08:06:07;8.95;;;2.90;;
30553;SDS011;17335;50.720;7.452;2024-02-16T08:08:34;5.65;;;2.50;;
30553;SDS011;17335;50.720;7.452;2024-02-16T08:11:00;5.40;;;2.40;;
30553;SDS011;17335;50.720;7.452;2024-02-16T08:13:27;8.18;;;2.63;;
30553;SDS011;17335;50.720;7.452;2024-02-16T08:15:53;6.25;;;2.55;;
30553;SDS011;17335;50.720;7.452;2024-02-16T08:18:20;5.10;;;2.35;;
30553;SDS011;17335;50.720;7.452;2024-02-16T08:20:46;5.63;;;2.03;;
30553;SDS011;17335;50.720;7.452;2024-02-16T08:23:13;6.15;;;2.55;;
30553;SDS011;17335;50.720;7.452;2024-02-16T08:25:39;7.78;;;2.90;;
30553;SDS011;17335;50.720;7.452;2024-02-16T08:28:06;5.80;;;1.90;;
30553;SDS011;17335;50.720;7.452;2024-02-16T08:30:32;5.18;;;2.30;;
30553;SDS011;17335;50.720;7.452;2024-02-16T08:32:59;5.97;;;2.20;;
30553;SDS011;17335;50.720;7.452;2024-02-16T08:35:26;9.77;;;2.42;;
30553;SDS011;17335;50.720;7.452;2024-02-16T08:37:54;5.57;;;2.58;;
30553;SDS011;17335;50.720;7.452;2024-02-16T08:40:20;5.28;;;2.45;;
30553;SDS011;17335;50.720;7.452;2024-02-16T08:42:47;4.57;;;2.15;;
30553;SDS011;17335;50.720;7.452;2024-02-16T08:45:13;4.82;;;2.42;;
30553;SDS011;17335;50.720;7.452;2024-02-16T08:47:44;4.13;;;2.00;;
30553;SDS011;17335;50.720;7.452;2024-02-16T08:50:13;5.95;;;2.35;;
30553;SDS011;17335;50.720;7.452;2024-02-16T08:52:39;4.53;;;1.95;;
30553;SDS011;17335;50.720;7.452;2024-02-16T08:55:06;7.60;;;2.08;;
30553;SDS011;17335;50.720;7.452;2024-02-16T08:57:34;6.43;;;2.30;;
30553;SDS011;17335;50.720;7.452;2024-02-16T09:00:00;4.13;;;1.98;;
30553;SDS011;17335;50.720;7.452;2024-02-16T09:02:27;4.55;;;2.03;;
30553;SDS011;17335;50.720;7.452;2024-02-16T09:04:53;4.53;;;2.10;;
30553;SDS011;17335;50.720;7.452;2024-02-16T09:07:20;6.15;;;2.47;;
30553;SDS011;17335;50.720;7.452;2024-02-16T09:09:51;7.68;;;2.08;;
30553;SDS011;17335;50.720;7.452;2024-02-16T09:12:18;4.35;;;2.20;;
30553;SDS011;17335;50.720;7.452;2024-02-16T09:14:44;5.68;;;1.90;;
30553;SDS011;17335;50.720;7.452;2024-02-16T09:17:11;4.43;;;2.03;;
30553;SDS011;17335;50.720;7.452;2024-02-16T09:19:37;9.45;;;2.17;;
30553;SDS011;17335;50.720;7.452;2024-02-16T09:22:04;5.40;;;2.25;;
30553;SDS011;17335;50.720;7.452;2024-02-16T09:24:32;3.60;;;1.83;;
30553;SDS011;17335;50.720;7.452;2024-02-16T09:26:59;5.43;;;2.40;;
30553;SDS011;17335;50.720;7.452;2024-02-16T09:29:30;9.68;;;2.60;;
30553;SDS011;17335;50.720;7.452;2024-02-16T09:31:57;5.25;;;2.20;;
30553;SDS011;17335;50.720;7.452;2024-02-16T09:34:24;5.93;;;2.08;;
30553;SDS011;17335;50.720;7.452;2024-02-16T09:36:51;4.45;;;2.10;;
30553;SDS011;17335;50.720;7.452;2024-02-16T09:39:17;5.88;;;2.20;;
30553;SDS011;17335;50.720;7.452;2024-02-16T09:41:44;7.63;;;2.85;;
30553;SDS011;17335;50.720;7.452;2024-02-16T09:44:16;6.07;;;2.45;;
30553;SDS011;17335;50.720;7.452;2024-02-16T09:46:43;8.20;;;2.38;;
30553;SDS011;17335;50.720;7.452;2024-02-16T09:49:10;8.02;;;2.65;;
30553;SDS011;17335;50.720;7.452;2024-02-16T09:51:37;8.10;;;2.55;;
30553;SDS011;17335;50.720;7.452;2024-02-16T09:54:04;7.72;;;2.30;;
30553;SDS011;17335;50.720;7.452;2024-02-16T09:56:33;5.13;;;2.25;;
30553;SDS011;17335;50.720;7.452;2024-02-16T09:58:59;5.30;;;2.28;;
30553;SDS011;17335;50.720;7.452;2024-02-16T10:01:26;4.13;;;2.03;;
30553;SDS011;17335;50.720;7.452;2024-02-16T10:03:54;7.05;;;2.08;;
30553;SDS011;17335;50.720;7.452;2024-02-16T10:06:31;6.53;;;2.20;;
30553;SDS011;17335;50.720;7.452;2024-02-16T10:08:58;10.38;;;2.28;;
30553;SDS011;17335;50.720;7.452;2024-02-16T10:11:25;6.00;;;2.50;;
30553;SDS011;17335;50.720;7.452;2024-02-16T10:14:05;5.55;;;2.40;;
30553;SDS011;17335;50.720;7.452;2024-02-16T10:19:04;5.00;;;2.03;;
30553;SDS011;17335;50.720;7.452;2024-02-16T10:21:33;4.57;;;2.17;;
30553;SDS011;17335;50.720;7.452;2024-02-16T10:24:01;8.82;;;2.30;;
30553;SDS011;17335;50.720;7.452;2024-02-16T10:26:28;5.10;;;2.13;;
30553;SDS011;17335;50.720;7.452;2024-02-16T10:28:55;4.30;;;2.10;;
30553;SDS011;17335;50.720;7.452;2024-02-16T10:31:24;5.88;;;2.47;;
30553;SDS011;17335;50.720;7.452;2024-02-16T10:33:59;8.05;;;2.45;;
30553;SDS011;17335;50.720;7.452;2024-02-16T10:36:32;6.10;;;2.38;;
30553;SDS011;17335;50.720;7.452;2024-02-16T10:39:00;6.68;;;2.17;;
30553;SDS011;17335;50.720;7.452;2024-02-16T10:41:35;5.80;;;2.40;;
30553;SDS011;17335;50.720;7.452;2024-02-16T10:44:04;6.75;;;2.72;;
30553;SDS011;17335;50.720;7.452;2024-02-16T10:46:32;9.73;;;2.97;;
30553;SDS011;17335;50.720;7.452;2024-02-16T10:48:59;9.88;;;3.22;;
30553;SDS011;17335;50.720;7.452;2024-02-16T10:51:30;6.40;;;2.80;;
30553;SDS011;17335;50.720;7.452;2024-02-16T10:54:01;5.95;;;2.65;;
30553;SDS011;17335;50.720;7.452;2024-02-16T10:56:37;6.95;;;2.60;;
30553;SDS011;17335;50.720;7.452;2024-02-16T10:59:07;8.40;;;2.90;;
30553;SDS011;17335;50.720;7.452;2024-02-16T11:01:38;8.82;;;3.05;;
30553;SDS011;17335;50.720;7.452;2024-02-16T11:04:07;5.32;;;2.63;;
30553;SDS011;17335;50.720;7.452;2024-02-16T11:06:44;7.75;;;3.03;;
30553;SDS011;17335;50.720;7.452;2024-02-16T11:09:35;7.57;;;2.85;;
30553;SDS011;17335;50.720;7.452;2024-02-16T11:12:03;8.52;;;2.78;;
30553;SDS011;17335;50.720;7.452;2024-02-16T11:14:34;7.80;;;2.78;;
30553;SDS011;17335;50.720;7.452;2024-02-16T11:17:07;6.63;;;3.13;;
30553;SDS011;17335;50.720;7.452;2024-02-16T11:19:41;8.93;;;3.00;;
30553;SDS011;17335;50.720;7.452;2024-02-16T11:22:09;8.07;;;2.58;;
30553;SDS011;17335;50.720;7.452;2024-02-16T11:24:42;9.32;;;2.80;;
30553;SDS011;17335;50.720;7.452;2024-02-16T11:27:16;6.43;;;2.40;;
30553;SDS011;17335;50.720;7.452;2024-02-16T11:29:48;5.70;;;2.63;;
30553;SDS011;17335;50.720;7.452;2024-02-16T11:32:15;6.97;;;3.05;;
30553;SDS011;17335;50.720;7.452;2024-02-16T11:34:44;8.80;;;3.00;;
30553;SDS011;17335;50.720;7.452;2024-02-16T11:37:12;7.88;;;2.72;;
30553;SDS011;17335;50.720;7.452;2024-02-16T11:39:39;6.68;;;3.10;;
30553;SDS011;17335;50.720;7.452;2024-02-16T11:42:11;8.68;;;2.97;;
30553;SDS011;17335;50.720;7.452;2024-02-16T11:44:39;7.70;;;3.00;;
30553;SDS011;17335;50.720;7.452;2024-02-16T11:47:18;6.07;;;2.50;;
30553;SDS011;17335;50.720;7.452;2024-02-16T11:49:46;6.28;;;2.80;;
30553;SDS011;17335;50.720;7.452;2024-02-16T11:52:13;6.85;;;3.17;;
30553;SDS011;17335;50.720;7.452;2024-02-16T11:54:43;10.50;;;2.72;;
30553;SDS011;17335;50.720;7.452;2024-02-16T11:57:10;11.23;;;3.53;;
30553;SDS011;17335;50.720;7.452;2024-02-16T11:59:37;5.50;;;3.10;;
30553;SDS011;17335;50.720;7.452;2024-02-16T12:02:03;10.70;;;3.22;;
30553;SDS011;17335;50.720;7.452;2024-02-16T12:04:30;7.80;;;3.00;;
30553;SDS011;17335;50.720;7.452;2024-02-16T12:06:57;6.88;;;2.75;;
30553;SDS011;17335;50.720;7.452;2024-02-16T12:09:30;7.43;;;2.90;;
30553;SDS011;17335;50.720;7.452;2024-02-16T12:12:01;12.32;;;3.25;;
30553;SDS011;17335;50.720;7.452;2024-02-16T12:14:29;7.22;;;3.03;;
30553;SDS011;17335;50.720;7.452;2024-02-16T12:16:56;12.50;;;3.28;;
30553;SDS011;17335;50.720;7.452;2024-02-16T12:19:24;7.93;;;3.28;;
30553;SDS011;17335;50.720;7.452;2024-02-16T12:21:55;8.90;;;3.28;;
30553;SDS011;17335;50.720;7.452;2024-02-16T12:24:24;9.52;;;3.78;;
30553;SDS011;17335;50.720;7.452;2024-02-16T12:26:51;12.25;;;3.78;;
30553;SDS011;17335;50.720;7.452;2024-02-16T12:29:18;7.35;;;3.00;;
30553;SDS011;17335;50.720;7.452;2024-02-16T12:31:45;7.63;;;2.60;;
30553;SDS011;17335;50.720;7.452;2024-02-16T12:34:14;7.65;;;3.38;;
30553;SDS011;17335;50.720;7.452;2024-02-16T12:36:41;7.72;;;3.20;;
30553;SDS011;17335;50.720;7.452;2024-02-16T12:39:13;6.50;;;2.70;;
30553;SDS011;17335;50.720;7.452;2024-02-16T12:41:42;5.55;;;2.70;;
30553;SDS011;17335;50.720;7.452;2024-02-16T12:44:09;5.90;;;2.90;;
30553;SDS011;17335;50.720;7.452;2024-02-16T12:46:36;7.05;;;3.30;;
30553;SDS011;17335;50.720;7.452;2024-02-16T12:49:05;8.10;;;3.00;;
30553;SDS011;17335;50.720;7.452;2024-02-16T12:51:31;6.57;;;2.97;;
30553;SDS011;17335;50.720;7.452;2024-02-16T12:53:58;6.82;;;2.88;;
30553;SDS011;17335;50.720;7.452;2024-02-16T12:56:26;11.30;;;3.00;;
30553;SDS011;17335;50.720;7.452;2024-02-16T12:58:52;5.90;;;2.80;;
30553;SDS011;17335;50.720;7.452;2024-02-16T13:01:19;11.88;;;3.13;;
30553;SDS011;17335;50.720;7.452;2024-02-16T13:03:52;6.80;;;2.63;;
30553;SDS011;17335;50.720;7.452;2024-02-16T13:06:18;5.85;;;3.05;;
30553;SDS011;17335;50.720;7.452;2024-02-16T13:08:50;8.80;;;3.17;;
30553;SDS011;17335;50.720;7.452;2024-02-16T13:11:16;7.28;;;2.90;;
30553;SDS011;17335;50.720;7.452;2024-02-16T13:13:43;6.65;;;2.70;;
30553;SDS011;17335;50.720;7.452;2024-02-16T13:16:09;9.43;;;4.07;;
30553;SDS011;17335;50.720;7.452;2024-02-16T13:18:36;8.60;;;3.60;;
30553;SDS011;17335;50.720;7.452;2024-02-16T13:21:03;7.80;;;3.70;;
30553;SDS011;17335;50.720;7.452;2024-02-16T13:23:29;7.57;;;3.45;;
30553;SDS011;17335;50.720;7.452;2024-02-16T13:25:57;8.00;;;3.25;;
30553;SDS011;17335;50.720;7.452;2024-02-16T13:28:24;7.97;;;3.25;;
30553;SDS011;17335;50.720;7.452;2024-02-16T13:30:50;10.50;;;2.85;;
30553;SDS011;17335;50.720;7.452;2024-02-16T13:33:17;8.40;;;3.42;;
30553;SDS011;17335;50.720;7.452;2024-02-16T13:35:44;9.93;;;4.63;;
30553;SDS011;17335;50.720;7.452;2024-02-16T13:38:10;8.45;;;4.00;;
30553;SDS011;17335;50.720;7.452;2024-02-16T13:40:37;10.48;;;4.13;;
30553;SDS011;17335;50.720;7.452;2024-02-16T13:43:03;8.05;;;3.47;;
30553;SDS011;17335;50.720;7.452;2024-02-16T13:45:45;9.65;;;3.63;;
30553;SDS011;17335;50.720;7.452;2024-02-16T13:48:15;10.50;;;3.20;;
30553;SDS011;17335;50.720;7.452;2024-02-16T13:50:43;9.27;;;3.15;;
30553;SDS011;17335;50.720;7.452;2024-02-16T13:53:13;6.38;;;3.30;;
30553;SDS011;17335;50.720;7.452;2024-02-16T13:55:46;6.47;;;3.22;;
30553;SDS011;17335;50.720;7.452;2024-02-16T13:58:12;6.13;;;3.20;;
30553;SDS011;17335;50.720;7.452;2024-02-16T14:00:39;6.47;;;3.33;;
30553;SDS011;17335;50.720;7.452;2024-02-16T14:03:06;7.10;;;2.92;;
30553;SDS011;17335;50.720;7.452;2024-02-16T14:05:36;10.27;;;4.30;;
30553;SDS011;17335;50.720;7.452;2024-02-16T14:08:06;10.18;;;3.38;;
30553;SDS011;17335;50.720;7.452;2024-02-16T14:10:37;7.90;;;2.65;;
30553;SDS011;17335;50.720;7.452;2024-02-16T14:13:04;9.65;;;3.38;;
30553;SDS011;17335;50.720;7.452;2024-02-16T14:15:30;9.85;;;3.42;;
30553;SDS011;17335;50.720;7.452;2024-02-16T14:17:58;9.35;;;3.38;;
30553;SDS011;17335;50.720;7.452;2024-02-16T14:20:30;10.55;;;3.78;;
30553;SDS011;17335;50.720;7.452;2024-02-16T14:22:57;9.40;;;3.53;;
30553;SDS011;17335;50.720;7.452;2024-02-16T14:25:23;13.27;;;3.25;;
30553;SDS011;17335;50.720;7.452;2024-02-16T14:27:51;7.00;;;3.38;;
30553;SDS011;17335;50.720;7.452;2024-02-16T14:30:18;7.65;;;3.47;;
30553;SDS011;17335;50.720;7.452;2024-02-16T14:32:45;8.55;;;3.13;;
30553;SDS011;17335;50.720;7.452;2024-02-16T14:35:12;7.55;;;3.60;;
30553;SDS011;17335;50.720;7.452;2024-02-16T14:37:39;6.15;;;3.50;;
30553;SDS011;17335;50.720;7.452;2024-02-16T14:40:06;5.97;;;3.35;;
30553;SDS011;17335;50.720;7.452;2024-02-16T14:42:36;10.57;;;3.85;;
30553;SDS011;17335;50.720;7.452;2024-02-16T14:45:05;12.25;;;4.03;;
30553;SDS011;17335;50.720;7.452;2024-02-16T14:47:35;13.25;;;3.80;;
30553;SDS011;17335;50.720;7.452;2024-02-16T14:50:03;6.82;;;3.88;;
30553;SDS011;17335;50.720;7.452;2024-02-16T14:52:34;6.68;;;3.22;;
30553;SDS011;17335;50.720;7.452;2024-02-16T14:55:00;10.75;;;3.85;;